createdAt,value
2023-03-03T00:09:57.980Z,78.50
2023-03-03T00:15:18.003Z,74.60
2023-03-03T00:20:38.425Z,71.40
2023-03-03T00:25:44.663Z,65.30
2023-03-03T00:30:46.406Z,65.00
2023-03-03T00:35:48.226Z,63.40
2023-03-03T00:40:52.370Z,68.90
2023-03-03T00:45:56.591Z,78.20
2023-03-03T00:51:30.093Z,87.70
2023-03-03T00:56:31.981Z,85.00
2023-03-03T01:01:33.733Z,90.80
2023-03-03T01:06:35.763Z,88.00
2023-03-03T01:11:37.508Z,87.50
2023-03-03T01:21:40.978Z,93.10
2023-03-03T01:26:42.751Z,92.80
2023-03-03T01:31:44.593Z,91.90
2023-03-03T01:36:46.288Z,86.00
2023-03-03T01:47:12.875Z,78.40
2023-03-03T01:52:36.463Z,81.00
2023-03-03T01:57:43.978Z,76.90
2023-03-03T02:02:46.944Z,71.90
2023-03-03T02:07:49.170Z,83.40
2023-03-03T02:12:53.990Z,91.70
2023-03-03T02:18:00.685Z,88.50
2023-03-03T02:23:18.051Z,91.70
2023-03-03T02:28:20.736Z,82.10
2023-03-03T02:33:24.458Z,93.70
2023-03-03T02:38:29.158Z,92.10
2023-03-03T02:43:41.648Z,85.40
2023-03-03T02:48:43.670Z,80.80
2023-03-03T02:53:45.765Z,92.40
2023-03-03T02:58:47.540Z,95.10
2023-03-03T03:03:49.640Z,88.10
2023-03-03T03:08:54.167Z,83.40
2023-03-03T03:13:56.212Z,85.00
2023-03-03T03:18:59.824Z,80.80
2023-03-03T03:24:02.194Z,77.70
2023-03-03T03:29:05.151Z,83.60
2023-03-03T03:34:07.760Z,81.80
2023-03-03T03:39:09.597Z,70.20
2023-03-03T03:44:14.061Z,68.20
2023-03-03T03:49:16.005Z,66.70
2023-03-03T03:54:17.807Z,64.30
2023-03-03T03:59:20.839Z,67.00
2023-03-03T04:04:22.711Z,68.50
2023-03-03T04:09:25.260Z,70.80
2023-03-03T04:14:27.395Z,61.30
2023-03-03T04:19:29.932Z,58.90
2023-03-03T04:24:31.764Z,59.00
2023-03-03T04:29:33.795Z,58.60
2023-03-03T04:34:36.324Z,62.60
2023-03-03T04:39:39.067Z,63.00
2023-03-03T04:44:40.873Z,64.50
2023-03-03T04:49:42.965Z,84.90
2023-03-03T04:54:44.924Z,92.10
2023-03-03T04:59:46.818Z,73.80
2023-03-03T05:06:31.666Z,61.60
2023-03-03T05:16:34.953Z,62.80
2023-03-03T05:26:40.838Z,74.20
2023-03-03T05:31:45.495Z,63.30
2023-03-03T05:36:47.458Z,59.30
2023-03-03T05:46:50.802Z,65.70
2023-03-03T05:56:54.165Z,63.40
2023-03-03T06:01:55.926Z,61.60
2023-03-03T06:06:57.941Z,64.50
2023-03-03T06:11:59.685Z,63.40
2023-03-03T06:17:01.439Z,57.10
2023-03-03T06:22:03.613Z,59.20
2023-03-03T06:27:07.849Z,59.20
2023-03-03T06:32:09.745Z,40.70
2023-03-03T06:37:11.605Z,45.50
2023-03-03T06:42:13.484Z,42.20
2023-03-03T06:47:15.197Z,32.10
2023-03-03T07:02:29.898Z,41.30
2023-03-03T07:07:31.809Z,35.90
2023-03-03T07:17:41.885Z,31.00
2023-03-03T07:22:43.641Z,36.10
2023-03-03T07:27:45.327Z,39.40
2023-03-03T07:37:49.351Z,29.40
2023-03-03T07:42:51.828Z,29.50
2023-03-03T07:48:19.261Z,32.20
2023-03-03T07:53:34.959Z,17.20
2023-03-03T07:58:42.064Z,30.20
2023-03-03T08:03:46.824Z,26.10
2023-03-03T08:09:21.618Z,24.70
2023-03-03T08:14:41.130Z,29.60
2023-03-03T08:19:42.832Z,33.00
2023-03-03T08:24:44.642Z,33.00
2023-03-03T08:29:48.439Z,34.70
2023-03-03T08:34:50.328Z,28.90
2023-03-03T08:39:52.137Z,29.20
2023-03-03T08:49:55.421Z,27.50
2023-03-03T08:54:57.274Z,34.50
2023-03-03T08:59:59.018Z,24.80
2023-03-03T09:10:04.811Z,26.20
2023-03-03T09:15:19.041Z,36.20
2023-03-03T09:20:44.159Z,33.00
2023-03-03T09:25:47.208Z,38.30
2023-03-03T09:30:51.483Z,34.00
2023-03-03T09:36:03.388Z,30.90
2023-03-03T09:41:05.080Z,32.50
2023-03-03T09:51:49.335Z,34.80
2023-03-03T09:57:04.171Z,15.20
2023-03-03T10:02:33.723Z,27.20
2023-03-03T10:07:50.881Z,35.30
2023-03-03T10:13:20.025Z,31.60
2023-03-03T10:18:42.593Z,31.30
2023-03-03T10:23:59.074Z,27.80
2023-03-03T10:29:22.622Z,26.90
2023-03-03T10:34:43.456Z,26.90
2023-03-03T10:39:48.169Z,31.40
2023-03-03T10:45:08.088Z,30.90
2023-03-03T10:50:35.261Z,23.50
2023-03-03T10:56:11.126Z,28.30
2023-03-03T11:01:34.716Z,18.40
2023-03-03T11:07:07.132Z,27.90
2023-03-03T11:12:15.185Z,29.20
2023-03-03T11:17:30.467Z,31.00
2023-03-03T11:23:11.024Z,24.20
2023-03-03T11:28:19.437Z,20.80
2023-03-03T11:33:36.008Z,28.70
2023-03-03T11:39:03.667Z,30.30
2023-03-03T11:44:19.226Z,32.80
2023-03-03T11:49:38.577Z,32.00
2023-03-03T11:54:54.860Z,32.10
2023-03-03T12:00:20.542Z,25.20
2023-03-03T12:05:31.289Z,31.80
2023-03-03T12:10:45.285Z,27.50
2023-03-03T12:15:49.672Z,32.30
2023-03-03T12:21:16.356Z,31.60
2023-03-03T12:26:32.599Z,31.60
2023-03-03T12:32:42.484Z,30.30
2023-03-03T12:38:28.928Z,34.20
2023-03-03T12:43:44.183Z,25.00
2023-03-03T12:48:47.623Z,35.70
2023-03-03T12:54:14.567Z,35.00
2023-03-03T12:59:22.037Z,31.50
2023-03-03T13:04:35.119Z,30.70
2023-03-03T13:09:58.115Z,29.50
2023-03-03T13:15:18.502Z,27.80
2023-03-03T13:20:45.197Z,29.80
2023-03-03T13:26:00.068Z,29.30
2023-03-03T13:31:32.225Z,28.20
2023-03-03T13:36:59.163Z,27.80
2023-03-03T13:42:06.685Z,27.10
2023-03-03T13:47:14.699Z,23.50
2023-03-03T13:52:22.552Z,30.60
2023-03-03T13:57:45.080Z,26.50
2023-03-03T14:02:58.825Z,25.50
2023-03-03T14:08:08.326Z,23.20
2023-03-03T14:13:13.675Z,21.50
2023-03-03T14:18:39.220Z,23.60
2023-03-03T14:23:48.223Z,22.90
2023-03-03T14:28:53.046Z,21.40
2023-03-03T14:34:16.335Z,22.00
2023-03-03T14:39:39.080Z,23.70
2023-03-03T14:45:00.717Z,23.70
2023-03-03T14:50:36.801Z,24.00
2023-03-03T14:55:41.279Z,27.70
2023-03-03T15:00:43.088Z,26.60
2023-03-03T15:05:52.992Z,26.60
2023-03-03T15:10:54.705Z,26.30
2023-03-03T15:15:59.162Z,29.60
2023-03-03T15:21:12.456Z,30.90
2023-03-03T15:26:35.685Z,30.40
2023-03-03T15:32:03.515Z,30.60
2023-03-03T15:37:24.753Z,26.00
2023-03-03T15:42:36.327Z,25.20
2023-03-03T15:47:56.806Z,22.90
2023-03-03T15:53:34.127Z,28.20
2023-03-03T15:59:20.007Z,28.80
2023-03-03T16:04:26.209Z,28.40
2023-03-03T16:09:39.800Z,27.30
2023-03-03T16:15:06.360Z,27.50
2023-03-03T16:20:33.458Z,25.20
2023-03-03T16:26:00.176Z,19.40
2023-03-03T16:31:13.243Z,21.90
2023-03-03T16:36:17.800Z,18.60
2023-03-03T16:41:26.880Z,17.70
2023-03-03T16:46:33.800Z,25.40
2023-03-03T16:51:46.687Z,23.50
2023-03-03T16:57:19.617Z,26.10
2023-03-03T17:03:00.503Z,23.00
2023-03-03T17:08:39.445Z,28.30
2023-03-03T17:13:59.725Z,28.50
2023-03-03T17:19:28.412Z,23.80
2023-03-03T17:24:45.622Z,23.10
2023-03-03T17:29:55.334Z,24.50
2023-03-03T17:35:19.930Z,30.90
2023-03-03T17:40:33.157Z,26.80
2023-03-03T17:45:41.007Z,25.90
2023-03-03T17:51:14.148Z,17.00
2023-03-03T17:56:22.955Z,19.20
2023-03-03T18:01:40.568Z,20.60
2023-03-03T18:07:00.900Z,21.10
2023-03-03T18:12:23.945Z,25.80
2023-03-03T18:17:38.006Z,31.30
2023-03-03T18:22:45.826Z,36.30
2023-03-03T18:28:07.490Z,38.90
2023-03-03T18:33:13.005Z,42.20
2023-03-03T18:38:17.985Z,36.00
2023-03-03T18:43:45.069Z,33.10
2023-03-03T18:48:50.500Z,37.70
2023-03-03T18:54:07.509Z,39.30
2023-03-03T18:59:09.774Z,43.00
2023-03-03T19:04:26.323Z,43.50
2023-03-03T19:09:52.504Z,47.10
2023-03-03T19:14:54.401Z,37.70
2023-03-03T19:20:18.169Z,38.20
2023-03-03T19:25:28.625Z,39.40
2023-03-03T19:30:39.853Z,37.50
2023-03-03T19:36:03.124Z,37.20
2023-03-03T19:41:37.774Z,37.50
2023-03-03T19:47:13.205Z,34.20
2023-03-03T19:52:29.913Z,36.50
2023-03-03T19:58:05.938Z,35.40
2023-03-03T20:03:48.003Z,34.70
2023-03-03T20:09:04.733Z,35.60
2023-03-03T20:14:21.622Z,36.90
2023-03-03T20:19:42.237Z,34.90
2023-03-03T20:25:06.030Z,31.20
2023-03-03T20:30:38.275Z,36.20
2023-03-03T20:35:51.367Z,42.30
2023-03-03T20:41:23.845Z,32.20
2023-03-03T20:46:47.643Z,28.30
2023-03-03T20:52:01.757Z,21.80
2023-03-03T20:57:23.131Z,24.00
2023-03-03T21:02:38.648Z,23.40
2023-03-03T21:08:03.673Z,23.50
2023-03-03T21:13:47.636Z,27.40
2023-03-03T21:18:57.613Z,22.20
2023-03-03T21:23:59.410Z,27.90
2023-03-03T21:29:03.510Z,29.90
2023-03-03T21:34:18.314Z,30.40
2023-03-03T21:39:31.312Z,30.70
2023-03-03T21:44:32.992Z,27.10
2023-03-03T21:54:36.486Z,30.80
2023-03-03T21:59:38.872Z,32.10
2023-03-03T22:04:41.385Z,32.20
2023-03-03T22:09:43.670Z,33.80
2023-03-03T22:14:51.737Z,32.90
2023-03-03T22:19:55.625Z,34.20
2023-03-03T22:24:57.346Z,32.70
2023-03-03T22:29:59.038Z,34.70
2023-03-03T22:40:02.728Z,35.20
2023-03-03T22:45:24.475Z,37.90
2023-03-03T22:50:28.220Z,35.90
2023-03-03T22:55:36.948Z,36.50
2023-03-03T23:00:39.291Z,37.40
2023-03-03T23:05:41.971Z,41.80
2023-03-03T23:10:43.741Z,35.20
2023-03-03T23:15:45.522Z,30.80
2023-03-03T23:20:47.368Z,26.00
2023-03-03T23:25:49.397Z,30.30
2023-03-03T23:30:52.320Z,33.00
2023-03-03T23:35:54.267Z,26.20
2023-03-03T23:51:01.389Z,33.10
2023-03-03T23:56:03.367Z,31.70
